Nashville International Airport
KBNA : now visible

Airfield :











YOU CAN JOIN US ON...

 
LOGIN :

Register | Disclaimer

   EN    FR    IT 

 









Legend :    VFR   Marginal VFR   IFR   Intensive IFR   Very Intensive IFR
Visi :
Ceiling :
>= 8 km
>= 3000ft
5 to 8 km
1000 to 3000 ft
1500m to 5 km
500 to 1000 ft
800 to 1500m
200 to 500 ft
< 800m
< 200 ft
Symbols :   Thunderstorms  Fog  Heavy snow  Heavy precipitations  Wind > 20 kt






- Airport Elevation : 599 ft
- IATA code : BNA


KBNA - Nashville International

CURRENT METAR :
  • 301553Z 35009KT 10SM OVC023 09/03 A3031 RMK AO2 SLP263 T00940033

EXPIRED METARs :
  • 301453Z 34009KT 10SM OVC018 08/03 A3029 RMK AO2 SLP257 T00830028 51034
  • 301353Z 34009KT 10SM OVC021 08/03 A3027 RMK AO2 SLP251 T00830033

TAF KBNA
Valid from the 30 at 13:00 until the 31 at 12:00 UTC


301326Z 3013/3112 35010KT P6SM OVC025
FM301700 36010KT P6SM SCT040
FM310000 02005KT P6SM SKC
KZME FIR / North America



MET'MAP, your aeronautical weather chart ! - Copyright ORBIFLY December 2007 - Disclaimer

ORBIFLY MET'MAP TEAM :

Programming & Development : Alexandra Zaïnal
Concept & original design : Baudouin d'Aumeries
Assistance for programming : Marc-Olivier Méhu
Technical & hardware support : Manuel Goepfert

Contact : metmap@orbifly.com




SOURCES & CREDITS :

   NOAA       Earth
Advisory